Time;durP1;ratioP1;P1;durP2;ratioP2;P2;SDS_P1;SDS_P2;PMS_P1;PMS_P2;Temp;Humidity;BMP_temperature;BMP_pressure;BME280_temperature;BME280_humidity;BME280_pressure;Samples;Min_cycle;Max_cycle;Signal;HPM_P1;HPM_P2
2021/06/25 00:00:32;;;;;;;6.43;4.03;;;;;;;18.14;49.72;101758.91;6226051;28;20232;-55
2021/06/25 00:03:55;;;;;;;3.60;3.30;;;;;;;18.06;50.02;101749.44;6236100;28;20256;-53
2021/06/25 00:07:16;;;;;;;4.13;2.67;;;;;;;18.06;50.20;101749.44;6242009;28;20333;-51
2021/06/25 00:10:39;;;;;;;4.10;3.35;;;;;;;18.08;49.83;101742.34;6246438;28;20235;-53
2021/06/25 00:13:59;;;;;;;4.80;3.55;;;;;;;18.05;50.13;101741.59;6237245;28;20610;-52
2021/06/25 00:17:21;;;;;;;4.35;3.95;;;;;;;17.75;51.53;101730.00;6237167;28;20236;-52
2021/06/25 00:20:43;;;;;;;8.07;4.43;;;;;;;17.85;50.80;101737.66;6243330;28;20617;-51
2021/06/25 00:24:05;;;;;;;5.18;4.15;;;;;;;17.74;51.28;101729.16;6243182;28;20316;-51
2021/06/25 00:27:25;;;;;;;6.45;3.88;;;;;;;17.73;51.63;101739.72;6242328;28;20315;-50
2021/06/25 00:30:47;;;;;;;5.27;4.77;;;;;;;17.34;52.30;101740.59;6231280;28;20256;-50
2021/06/25 00:34:08;;;;;;;5.05;4.55;;;;;;;17.50;52.62;101743.75;6211219;28;20256;-52
2021/06/25 00:37:30;;;;;;;4.80;4.37;;;;;;;17.44;52.91;101743.88;6240321;28;20259;-52
2021/06/25 00:40:52;;;;;;;6.65;5.55;;;;;;;17.25;53.49;101746.06;6241047;28;20286;-54
2021/06/25 00:44:17;;;;;;;5.43;4.97;;;;;;;17.12;54.14;101750.75;6241538;28;20236;-54
2021/06/25 00:47:39;;;;;;;5.63;5.10;;;;;;;17.31;53.79;101743.28;6236212;28;20232;-50
2021/06/25 00:51:00;;;;;;;5.73;5.13;;;;;;;17.34;54.26;101732.69;6212829;28;20755;-55
2021/06/25 00:54:22;;;;;;;6.20;5.60;;;;;;;17.24;54.19;101739.94;6226832;28;20527;-53
2021/06/25 00:57:43;;;;;;;6.60;5.23;;;;;;;17.31;54.79;101743.28;6213732;28;20413;-49
2021/06/25 01:01:04;;;;;;;9.33;6.70;;;;;;;17.02;55.61;101749.19;6235607;28;20347;-53
2021/06/25 01:04:26;;;;;;;7.87;7.07;;;;;;;16.95;55.85;101755.50;6209684;28;20288;-52
2021/06/25 01:07:46;;;;;;;6.97;6.37;;;;;;;17.19;55.54;101743.56;6212121;28;20343;-52
2021/06/25 01:11:09;;;;;;;9.43;7.73;;;;;;;16.81;56.58;101748.72;6211815;28;20618;-53
2021/06/25 01:14:32;;;;;;;11.73;7.47;;;;;;;17.03;56.03;101748.31;6233780;28;20216;-54
2021/06/25 01:17:53;;;;;;;8.00;7.23;;;;;;;17.02;56.20;101747.44;6238174;28;20647;-51
2021/06/25 01:21:15;;;;;;;7.93;7.13;;;;;;;17.14;55.98;101756.84;6210423;28;20237;-53
2021/06/25 01:24:36;;;;;;;6.30;5.80;;;;;;;16.92;56.78;101756.41;6222018;28;20236;-53
2021/06/25 01:27:59;;;;;;;7.70;6.93;;;;;;;16.91;57.13;101765.22;6235850;28;20636;-53
2021/06/25 01:31:20;;;;;;;7.43;6.70;;;;;;;16.90;57.43;101764.38;6204242;28;20217;-52
2021/06/25 01:34:41;;;;;;;7.60;6.90;;;;;;;16.95;57.14;101756.38;6237631;28;20610;-55
2021/06/25 01:38:05;;;;;;;7.53;6.77;;;;;;;16.79;57.41;101744.38;6236556;28;20233;-53
2021/06/25 01:41:25;;;;;;;7.87;6.33;;;;;;;16.74;58.11;101742.69;6209797;28;20221;-53
2021/06/25 01:44:47;;;;;;;7.43;6.70;;;;;;;16.71;57.96;101736.63;6213208;28;20818;-55
2021/06/25 01:48:08;;;;;;;8.43;7.53;;;;;;;16.67;58.26;101725.34;6234528;28;21216;-53
2021/06/25 01:51:29;;;;;;;7.20;6.47;;;;;;;16.90;57.91;101732.78;6210970;28;20220;-53
2021/06/25 01:54:52;;;;;;;7.77;7.07;;;;;;;16.83;57.90;101735.56;6235229;28;20229;-55
2021/06/25 01:58:15;;;;;;;10.07;7.33;;;;;;;16.65;58.67;101747.28;6233490;28;20260;-53
2021/06/25 02:01:35;;;;;;;9.03;7.37;;;;;;;16.79;58.33;101741.75;6216498;28;20512;-50
2021/06/25 02:04:57;;;;;;;9.93;7.30;;;;;;;16.84;58.14;101737.28;6232538;28;20621;-53
2021/06/25 02:08:19;;;;;;;8.90;8.00;;;;;;;16.67;58.95;101735.84;6234119;28;20225;-54
2021/06/25 02:11:41;;;;;;;9.30;7.90;;;;;;;16.69;58.80;101739.31;6226576;28;20494;-53
2021/06/25 02:15:03;;;;;;;8.57;7.87;;;;;;;16.42;59.86;101740.72;6211004;28;20236;-52
2021/06/25 02:18:25;;;;;;;9.27;7.83;;;;;;;16.61;59.40;101743.84;6230274;28;20229;-53
2021/06/25 02:21:46;;;;;;;9.87;8.87;;;;;;;16.55;59.86;101736.06;6211899;28;20244;-55
2021/06/25 02:25:09;;;;;;;9.83;8.30;;;;;;;16.46;60.44;101733.63;6208711;28;20232;-53
2021/06/25 02:28:32;;;;;;;8.02;7.22;;;;;;;16.50;60.30;101733.53;6208006;28;20600;-53
2021/06/25 02:31:53;;;;;;;11.23;8.50;;;;;;;16.49;60.76;101728.31;6214324;28;20228;-53
2021/06/25 02:35:16;;;;;;;16.57;10.07;;;;;;;16.56;60.43;101729.06;6209121;28;20220;-54
2021/06/25 02:38:37;;;;;;;10.97;9.80;;;;;;;16.42;60.93;101724.94;6222978;28;20232;-48
2021/06/25 02:41:58;;;;;;;11.37;9.80;;;;;;;16.50;61.00;101735.31;6238210;28;20319;-51
2021/06/25 02:45:21;;;;;;;11.77;10.57;;;;;;;16.82;59.95;101720.69;6203250;28;20236;-54
2021/06/25 02:48:42;;;;;;;11.20;10.20;;;;;;;16.79;59.98;101723.31;6210333;28;20312;-52
2021/06/25 02:52:03;;;;;;;13.23;11.93;;;;;;;16.82;59.77;101718.06;6234557;28;20509;-54
2021/06/25 02:55:25;;;;;;;13.93;11.87;;;;;;;16.72;60.08;101717.34;6237697;28;20232;-55
2021/06/25 02:58:46;;;;;;;12.50;10.30;;;;;;;16.60;60.49;101712.34;6240287;28;20228;-51
2021/06/25 03:02:08;;;;;;;13.63;10.60;;;;;;;16.45;61.40;101700.34;6226670;28;20315;-52
2021/06/25 03:05:29;;;;;;;31.20;28.33;;;;;;;16.51;61.71;101681.81;6230961;28;20315;-50
2021/06/25 03:08:50;;;;;;;23.33;20.88;;;;;;;16.70;60.94;101688.44;6234774;28;20657;-54
2021/06/25 03:12:11;;;;;;;23.70;21.47;;;;;;;16.43;61.75;101671.44;6235444;28;20232;-51
2021/06/25 03:15:32;;;;;;;21.50;19.47;;;;;;;16.58;60.86;101678.19;6235029;28;20228;-52
2021/06/25 03:18:55;;;;;;;15.90;14.07;;;;;;;16.64;60.56;101678.03;6235093;28;20255;-52
2021/06/25 03:22:16;;;;;;;15.87;13.23;;;;;;;16.44;61.39;101678.47;6230052;28;20228;-53
2021/06/25 03:25:37;;;;;;;12.30;11.00;;;;;;;16.74;60.40;101684.84;6233052;28;20630;-53
2021/06/25 03:28:58;;;;;;;14.20;12.33;;;;;;;16.52;60.73;101678.31;6228886;28;20228;-51
2021/06/25 03:32:19;;;;;;;13.60;12.23;;;;;;;16.56;60.83;101672.09;6220493;28;20508;-54
2021/06/25 03:35:41;;;;;;;14.00;11.90;;;;;;;16.45;60.98;101671.44;6228633;28;20228;-54
2021/06/25 03:39:04;;;;;;;13.87;12.40;;;;;;;16.51;61.29;101663.41;6227417;28;20228;-52
2021/06/25 03:42:25;;;;;;;13.90;12.10;;;;;;;16.74;60.48;101674.31;6236071;28;20798;-52
2021/06/25 03:45:46;;;;;;;12.93;11.73;;;;;;;16.79;60.03;101681.25;6236922;28;20259;-50
2021/06/25 03:49:07;;;;;;;12.73;11.47;;;;;;;16.79;59.85;101689.13;6232963;28;20235;-50
2021/06/25 03:52:30;;;;;;;14.13;12.23;;;;;;;16.47;60.89;101680.16;6238242;28;20232;-52
2021/06/25 03:59:29;;;;;;;13.43;12.17;;;;;;;16.82;59.91;101682.09;6234186;28;20232;-50
2021/06/25 04:02:50;;;;;;;17.27;15.53;;;;;;;16.78;60.06;101687.41;6234510;28;22217;-54
2021/06/25 04:06:11;;;;;;;15.57;14.07;;;;;;;16.81;59.97;101689.97;6241422;28;20352;-50
2021/06/25 04:09:34;;;;;;;15.93;14.23;;;;;;;16.96;59.77;101684.41;6235403;28;20228;-51
2021/06/25 04:12:55;;;;;;;14.60;13.13;;;;;;;17.15;59.05;101691.91;6236122;28;20228;-54
2021/06/25 04:16:16;;;;;;;13.77;12.43;;;;;;;17.11;58.65;101683.22;6239125;28;20284;-51
2021/06/25 04:19:38;;;;;;;12.20;11.00;;;;;;;16.89;59.36;101694.22;6238470;28;20236;-53
2021/06/25 04:22:59;;;;;;;11.37;10.27;;;;;;;17.08;58.99;101686.78;6237318;28;20224;-52
2021/06/25 04:26:21;;;;;;;11.80;9.90;;;;;;;17.24;58.22;101697.81;6238792;28;20277;-49
2021/06/25 04:29:43;;;;;;;12.20;10.90;;;;;;;17.20;58.25;101693.53;6231329;28;20228;-49
2021/06/25 04:33:05;;;;;;;12.77;11.63;;;;;;;17.16;58.33;101685.72;6237129;28;20228;-52
2021/06/25 04:36:26;;;;;;;11.57;10.07;;;;;;;16.92;59.00;101677.47;6229808;28;20219;-54
2021/06/25 04:39:47;;;;;;;12.47;11.17;;;;;;;17.17;58.55;101679.56;6235433;28;20225;-51
2021/06/25 04:43:11;;;;;;;11.77;10.57;;;;;;;17.05;58.70;101681.59;6240577;28;20236;-55
2021/06/25 04:46:33;;;;;;;11.50;10.40;;;;;;;17.36;58.20;101670.34;6225015;28;20253;-51
2021/06/25 04:49:54;;;;;;;11.33;10.07;;;;;;;17.38;58.14;101659.78;6236782;28;20236;-52
2021/06/25 04:53:15;;;;;;;12.83;10.33;;;;;;;17.54;57.60;101655.88;6235928;28;20236;-51
2021/06/25 04:56:36;;;;;;;10.50;9.47;;;;;;;17.33;57.31;101649.34;6226265;28;20239;-53
2021/06/25 04:59:59;;;;;;;11.80;10.60;;;;;;;17.38;57.34;101649.25;6233496;28;20240;-51
2021/06/25 05:03:20;;;;;;;12.90;11.67;;;;;;;16.70;58.97;101646.34;6228346;28;20323;-49
2021/06/25 05:06:41;;;;;;;13.30;12.10;;;;;;;17.12;57.63;101648.97;6235596;28;20629;-50
2021/06/25 05:10:03;;;;;;;15.40;11.53;;;;;;;17.23;57.37;101653.09;6235772;28;20225;-52
2021/06/25 05:13:24;;;;;;;11.60;10.47;;;;;;;17.32;57.12;101651.13;6237153;28;20593;-51
2021/06/25 05:16:47;;;;;;;12.80;11.27;;;;;;;17.34;57.33;101658.13;6237868;28;20570;-51
2021/06/25 05:20:09;;;;;;;13.33;11.53;;;;;;;17.42;57.00;101666.72;6229144;28;20610;-56
2021/06/25 05:23:29;;;;;;;11.13;10.03;;;;;;;17.69;56.02;101659.88;6205084;28;20548;-52
2021/06/25 05:26:51;;;;;;;11.47;10.37;;;;;;;17.51;56.74;101661.22;6232441;28;20251;-50
2021/06/25 05:30:13;;;;;;;13.17;11.30;;;;;;;17.47;56.59;101668.31;6240807;28;20224;-52
2021/06/25 05:33:35;;;;;;;12.53;11.23;;;;;;;17.57;55.40;101676.00;6211981;28;20224;-55
2021/06/25 05:36:57;;;;;;;12.20;11.13;;;;;;;17.69;56.02;101680.97;6238881;28;20251;-50
2021/06/25 05:40:18;;;;;;;13.80;12.40;;;;;;;17.88;54.64;101682.25;6236224;28;20224;-49
2021/06/25 05:43:39;;;;;;;13.17;11.97;;;;;;;17.77;55.02;101681.63;6235460;28;20330;-53
2021/06/25 05:46:59;;;;;;;14.47;11.93;;;;;;;17.43;55.51;101682.47;6230531;28;20355;-51
2021/06/25 05:50:22;;;;;;;15.93;11.70;;;;;;;17.69;54.42;101691.50;6227612;28;20695;-50
2021/06/25 05:53:43;;;;;;;13.23;11.00;;;;;;;17.60;54.87;101687.34;6229409;28;20232;-53
2021/06/25 05:57:05;;;;;;;9.27;7.40;;;;;;;18.14;55.48;101687.75;6233403;28;20232;-50
2021/06/25 06:00:26;;;;;;;12.20;9.10;;;;;;;18.47;52.29;101680.69;6232568;28;20240;-51
2021/06/25 06:03:47;;;;;;;10.23;9.10;;;;;;;18.50;52.60;101675.31;6234027;28;20255;-49
2021/06/25 06:07:10;;;;;;;9.87;9.07;;;;;;;18.59;51.66;101677.72;6227400;28;20583;-51
2021/06/25 06:10:32;;;;;;;9.88;8.13;;;;;;;18.47;51.88;101684.16;6230641;28;20232;-48
2021/06/25 06:13:52;;;;;;;19.73;9.97;;;;;;;18.35;53.20;101686.31;6226252;28;20236;-51
2021/06/25 06:17:16;;;;;;;10.13;8.10;;;;;;;18.78;51.86;101698.25;6231999;28;20224;-62
2021/06/25 06:20:37;;;;;;;8.70;7.75;;;;;;;19.32;50.96;101702.81;6230859;28;20224;-62
2021/06/25 06:31:21;;;;;;;7.20;6.43;;;;;;;19.50;49.81;101711.91;6231915;28;20525;-63
2021/06/25 06:34:44;;;;;;;8.30;7.03;;;;;;;19.58;48.45;101709.03;6232351;28;20663;-64
2021/06/25 06:38:06;;;;;;;7.05;6.45;;;;;;;18.95;49.86;101703.94;6214871;28;20225;-60
2021/06/25 06:41:29;;;;;;;7.72;6.80;;;;;;;19.59;48.86;101708.13;6230942;28;20216;-60
2021/06/25 06:44:50;;;;;;;9.65;7.43;;;;;;;19.97;46.96;101716.59;6232238;28;20256;-62
2021/06/25 06:48:11;;;;;;;7.05;6.38;;;;;;;20.37;46.17;101710.75;6240332;28;20246;-62
2021/06/25 06:51:32;;;;;;;4.60;4.15;;;;;;;20.38;46.85;101706.34;6234772;28;20235;-61
2021/06/25 06:54:53;;;;;;;8.40;5.00;;;;;;;20.72;44.37;101699.81;6230985;28;20247;-63
2021/06/25 06:58:16;;;;;;;5.63;5.07;;;;;;;20.44;45.17;101700.81;6239242;28;20231;-61
2021/06/25 07:01:37;;;;;;;5.20;4.75;;;;;;;20.22;44.50;101703.34;6229502;28;20228;-62
2021/06/25 07:04:57;;;;;;;4.85;3.88;;;;;;;19.00;45.48;101696.75;6231923;28;20232;-63
2021/06/25 07:08:18;;;;;;;4.70;4.35;;;;;;;19.41;46.37;101702.50;6236421;28;20267;-62
2021/06/25 07:11:39;;;;;;;4.75;4.40;;;;;;;19.55;45.55;101707.34;6232877;28;21079;-61
2021/06/25 07:15:01;;;;;;;5.30;4.80;;;;;;;19.70;45.31;101705.09;6233692;28;20233;-63
2021/06/25 07:18:23;;;;;;;5.05;4.30;;;;;;;20.33;44.19;101698.56;6236999;28;20237;-60
2021/06/25 07:21:44;;;;;;;5.50;3.65;;;;;;;20.03;44.34;101705.81;6236701;28;20224;-61
2021/06/25 07:25:06;;;;;;;4.85;4.25;;;;;;;20.29;43.88;101704.00;6228534;28;20264;-62
2021/06/25 07:28:27;;;;;;;4.85;4.35;;;;;;;20.64;44.07;101703.63;6248662;28;20736;-62
2021/06/25 07:31:49;;;;;;;6.07;4.07;;;;;;;21.21;43.15;101701.44;6221975;28;20232;-63
2021/06/25 07:35:11;;;;;;;4.72;3.67;;;;;;;20.51;43.67;101699.69;6229271;28;20622;-61
2021/06/25 07:38:32;;;;;;;5.00;3.60;;;;;;;20.91;44.48;101690.25;6243240;28;20247;-63
2021/06/25 07:41:53;;;;;;;4.85;4.45;;;;;;;21.09;42.84;101698.41;6233314;28;20232;-63
2021/06/25 07:45:15;;;;;;;6.13;4.40;;;;;;;20.10;44.59;101696.72;6237648;28;20558;-62
2021/06/25 07:48:37;;;;;;;3.53;3.22;;;;;;;20.34;45.25;101697.66;6244884;28;20232;-61
2021/06/25 07:51:58;;;;;;;4.95;4.25;;;;;;;20.43;44.66;101686.75;6235538;28;20228;-60
2021/06/25 07:55:19;;;;;;;4.30;3.65;;;;;;;20.63;44.77;101691.31;6236343;28;20242;-62
2021/06/25 07:58:39;;;;;;;8.48;4.35;;;;;;;21.08;43.24;101691.41;6232622;28;20228;-61
2021/06/25 08:02:00;;;;;;;3.55;3.25;;;;;;;20.55;44.10;101684.53;6239218;28;20233;-61
2021/06/25 08:05:23;;;;;;;4.47;4.10;;;;;;;21.00;42.81;101694.34;6230593;28;20267;-61
2021/06/25 08:08:44;;;;;;;4.22;3.83;;;;;;;21.46;42.25;101687.25;6239126;28;20229;-64
2021/06/25 08:12:06;;;;;;;4.60;3.58;;;;;;;21.57;42.30;101678.84;6237584;28;20236;-62
2021/06/25 08:15:27;;;;;;;6.32;5.80;;;;;;;20.63;42.79;101678.09;6234949;28;20256;-62
2021/06/25 08:18:51;;;;;;;6.78;6.13;;;;;;;18.85;47.55;101682.22;6233691;28;20244;-62
2021/06/25 08:22:13;;;;;;;7.45;6.72;;;;;;;18.55;48.38;101683.09;6229588;28;20315;-62
2021/06/25 08:25:34;;;;;;;6.35;5.72;;;;;;;18.51;47.98;101687.59;6230782;28;20640;-61
2021/06/25 08:28:56;;;;;;;5.85;5.30;;;;;;;20.38;43.21;101690.47;6230435;28;20236;-62
2021/06/25 08:32:17;;;;;;;5.10;4.70;;;;;;;21.19;41.69;101683.88;6227729;28;20539;-62
2021/06/25 08:35:38;;;;;;;7.05;5.32;;;;;;;21.90;41.11;101679.22;6239455;28;20527;-62
2021/06/25 08:39:01;;;;;;;6.10;5.60;;;;;;;19.62;43.62;101690.41;6235835;28;20233;-62
2021/06/25 08:42:23;;;;;;;9.32;7.72;;;;;;;18.29;46.56;101695.25;6233513;28;20235;-61
2021/06/25 08:45:44;;;;;;;7.75;6.95;;;;;;;19.06;45.75;101688.66;6238800;28;20228;-61
2021/06/25 08:49:05;;;;;;;7.10;6.32;;;;;;;19.61;45.38;101679.88;6249171;28;20232;-61
2021/06/25 08:52:26;;;;;;;5.68;5.18;;;;;;;20.85;43.08;101672.81;6236642;28;20248;-63
2021/06/25 08:55:49;;;;;;;6.47;6.00;;;;;;;19.96;45.26;101680.50;6241071;28;20227;-61
2021/06/25 08:59:10;;;;;;;7.35;6.68;;;;;;;20.53;43.18;101681.09;6235419;28;20252;-61
2021/06/25 09:02:32;;;;;;;6.32;5.72;;;;;;;21.70;41.15;101669.47;6230331;28;20231;-63
2021/06/25 09:06:06;;;;;;;6.40;4.82;;;;;;;21.33;42.19;101668.31;6233156;28;20240;-62
2021/06/25 09:09:38;;;;;;;5.35;4.95;;;;;;;22.37;40.79;101654.19;6224310;28;20622;-62
2021/06/25 09:13:07;;;;;;;5.93;5.40;;;;;;;19.25;43.90;101682.78;6228954;28;20237;-63
2021/06/25 09:16:30;;;;;;;5.35;4.85;;;;;;;20.12;43.84;101676.38;6227551;28;20227;-64
2021/06/25 09:19:52;;;;;;;6.22;5.80;;;;;;;20.11;43.44;101679.94;6233131;28;20232;-63
2021/06/25 09:23:15;;;;;;;6.32;5.72;;;;;;;20.76;42.18;101675.84;6241627;28;20224;-63
2021/06/25 09:26:36;;;;;;;4.88;4.38;;;;;;;21.82;41.23;101670.72;6236834;28;20224;-62
2021/06/25 09:29:58;;;;;;;5.28;4.68;;;;;;;21.20;41.42;101675.03;6241246;28;20232;-63
2021/06/25 09:33:21;;;;;;;5.10;4.70;;;;;;;20.78;40.97;101667.81;6225632;28;20335;-62
2021/06/25 09:36:41;;;;;;;6.45;4.95;;;;;;;20.78;41.66;101678.41;6231961;28;20260;-62
2021/06/25 09:40:07;;;;;;;6.40;5.00;;;;;;;20.88;42.59;101665.69;6229242;28;20750;-62
2021/06/25 09:43:32;;;;;;;4.90;4.53;;;;;;;21.64;40.05;101664.41;6233356;28;20227;-62
2021/06/25 09:46:57;;;;;;;3.72;3.30;;;;;;;22.62;38.73;101667.19;6232917;28;20548;-62
2021/06/25 09:50:20;;;;;;;4.97;4.47;;;;;;;21.22;39.94;101674.03;6238323;28;20236;-61
2021/06/25 09:54:08;;;;;;;5.13;4.63;;;;;;;21.41;40.00;101679.44;6239096;28;20244;-63
2021/06/25 09:57:29;;;;;;;6.18;4.97;;;;;;;22.14;39.47;101674.66;6238952;28;20231;-63
2021/06/25 10:04:38;;;;;;;7.18;6.57;;;;;;;21.03;42.03;101680.97;6236244;28;20256;-63
2021/06/25 10:07:59;;;;;;;6.32;5.50;;;;;;;20.68;43.11;101677.03;6239336;28;20494;-62
2021/06/25 10:11:23;;;;;;;5.93;5.45;;;;;;;21.39;40.81;101681.31;6236138;28;20283;-62
2021/06/25 10:14:45;;;;;;;5.35;4.82;;;;;;;21.48;41.17;101674.81;6231536;28;20228;-62
2021/06/25 10:18:06;;;;;;;6.13;5.10;;;;;;;21.99;40.22;101684.13;6231026;28;20228;-63
2021/06/25 10:21:32;;;;;;;6.28;5.78;;;;;;;22.27;38.41;101659.06;6226730;28;20232;-62
2021/06/25 10:24:53;;;;;;;5.93;5.40;;;;;;;22.25;38.87;101673.31;6236264;28;20252;-63
2021/06/25 10:28:17;;;;;;;7.07;6.55;;;;;;;21.01;40.93;101675.75;6234545;28;20259;-62
2021/06/25 10:31:39;;;;;;;6.47;5.97;;;;;;;21.35;40.32;101661.16;6233814;28;20236;-63
2021/06/25 10:35:01;;;;;;;5.47;4.82;;;;;;;22.47;39.13;101666.13;6239939;28;20693;-61
2021/06/25 10:38:27;;;;;;;5.93;5.22;;;;;;;22.84;38.76;101664.44;6228092;28;20231;-62
2021/06/25 10:41:50;;;;;;;5.88;5.18;;;;;;;22.99;37.83;101669.00;6216504;28;20252;-62
2021/06/25 10:45:13;;;;;;;6.22;5.70;;;;;;;23.11;37.87;101672.03;6225533;28;20959;-62
2021/06/25 10:48:37;;;;;;;6.63;6.13;;;;;;;21.40;39.79;101666.25;6235497;28;20695;-62
2021/06/25 10:52:09;;;;;;;5.50;5.00;;;;;;;23.13;37.95;101668.38;6233419;28;20231;-62
2021/06/25 10:55:32;;;;;;;5.00;4.60;;;;;;;23.86;36.45;101664.78;6240256;28;20608;-61
2021/06/25 10:59:18;;;;;;;4.55;4.15;;;;;;;23.99;34.25;101663.22;6236408;28;20232;-63
2021/06/25 11:02:41;;;;;;;5.28;4.95;;;;;;;22.42;36.44;101657.50;6241120;28;20224;-63
2021/06/25 11:06:03;;;;;;;4.07;3.78;;;;;;;23.59;34.09;101658.13;6225573;28;20228;-59
2021/06/25 11:09:27;;;;;;;3.70;3.13;;;;;;;24.69;32.53;101649.75;6233516;28;20240;-60
2021/06/25 11:12:50;;;;;;;3.72;3.28;;;;;;;24.97;31.95;101643.75;6229038;28;20240;-61
2021/06/25 11:16:21;;;;;;;5.57;5.18;;;;;;;25.08;32.10;101646.66;6227921;28;20315;-65
2021/06/25 11:19:42;;;;;;;6.63;6.18;;;;;;;23.11;33.88;101648.13;6236213;28;20240;-60
2021/06/25 11:23:06;;;;;;;6.47;5.90;;;;;;;23.30;33.99;101645.41;6227731;28;20236;-62
2021/06/25 11:26:27;;;;;;;5.38;4.97;;;;;;;24.12;33.48;101645.69;6236462;28;20247;-53
2021/06/25 11:29:50;;;;;;;8.77;5.57;;;;;;;24.05;33.26;101649.59;6244366;28;20245;-52
2021/06/25 11:33:25;;;;;;;6.57;6.00;;;;;;;22.17;36.00;101637.34;6233050;28;20240;-51
2021/06/25 11:36:52;;;;;;;7.78;7.18;;;;;;;23.91;33.43;101644.16;6236826;28;20231;-55
2021/06/25 11:40:13;;;;;;;5.25;4.85;;;;;;;24.63;32.55;101642.13;6238091;28;20316;-50
2021/06/25 11:43:34;;;;;;;6.03;5.43;;;;;;;24.18;32.20;101645.34;6225185;28;20791;-54
2021/06/25 11:47:01;;;;;;;5.85;5.28;;;;;;;23.91;32.81;101644.16;6222632;28;20288;-52
2021/06/25 11:50:22;;;;;;;7.50;6.90;;;;;;;23.74;33.62;101644.97;6243873;28;20688;-50
2021/06/25 11:53:43;;;;;;;8.98;6.60;;;;;;;24.04;32.84;101636.38;6237375;28;20248;-54
2021/06/25 11:57:05;;;;;;;7.10;6.45;;;;;;;23.69;33.76;101645.22;6228223;28;20304;-50
2021/06/25 12:00:27;;;;;;;5.60;5.07;;;;;;;24.36;32.80;101632.00;6227336;28;20232;-53
2021/06/25 12:03:50;;;;;;;4.30;4.00;;;;;;;25.07;33.07;101633.44;6241869;28;20232;-54
2021/06/25 12:07:12;;;;;;;5.90;5.40;;;;;;;24.35;32.73;101635.63;6238580;28;20310;-54
2021/06/25 12:10:34;;;;;;;5.05;4.25;;;;;;;24.92;33.33;101636.00;6225567;28;20236;-54
2021/06/25 12:13:57;;;;;;;4.78;4.43;;;;;;;25.66;31.97;101629.06;6242374;28;20240;-55
2021/06/25 12:17:18;;;;;;;6.32;5.88;;;;;;;25.65;31.24;101630.03;6231782;28;20492;-51
2021/06/25 12:20:40;;;;;;;7.30;6.70;;;;;;;24.54;32.77;101624.81;6249014;28;20228;-52
2021/06/25 12:24:01;;;;;;;7.07;6.47;;;;;;;23.86;33.41;101628.41;6242718;28;20607;-53
2021/06/25 12:27:35;;;;;;;6.70;6.07;;;;;;;25.35;31.44;101628.22;6241027;28;20232;-54
2021/06/25 12:31:00;;;;;;;5.95;5.45;;;;;;;25.74;30.50;101618.84;6236464;28;20349;-51
2021/06/25 12:34:21;;;;;;;5.70;5.10;;;;;;;25.52;31.85;101613.91;6257440;28;20227;-54
2021/06/25 12:37:51;;;;;;;6.22;5.25;;;;;;;25.34;31.27;101621.19;6244656;28;20280;-51
2021/06/25 12:41:14;;;;;;;4.22;3.88;;;;;;;24.75;31.79;101628.94;6243394;28;20649;-54
2021/06/25 12:44:35;;;;;;;5.43;4.93;;;;;;;24.56;31.83;101626.47;6253584;28;20232;-50
2021/06/25 12:47:56;;;;;;;8.73;8.13;;;;;;;24.78;31.18;101622.63;6255340;28;20235;-52
2021/06/25 12:51:19;;;;;;;6.25;5.75;;;;;;;24.79;31.82;101624.31;6246805;28;20266;-48
2021/06/25 12:54:43;;;;;;;5.22;4.72;;;;;;;25.43;30.04;101627.78;6235991;28;20224;-51
2021/06/25 12:58:04;;;;;;;4.05;3.75;;;;;;;26.69;29.72;101627.25;6240507;28;20253;-54
2021/06/25 13:01:26;;;;;;;4.45;4.15;;;;;;;27.07;28.15;101622.06;6235066;28;20319;-49
2021/06/25 13:04:47;;;;;;;6.63;6.13;;;;;;;24.55;30.41;101619.41;6236522;28;20303;-52
2021/06/25 13:08:16;;;;;;;6.38;5.82;;;;;;;24.26;30.87;101621.00;6229746;28;20240;-53
2021/06/25 13:11:38;;;;;;;10.00;7.80;;;;;;;23.44;32.00;101636.75;6241117;28;20545;-49
2021/06/25 13:14:59;;;;;;;6.95;6.30;;;;;;;25.12;30.51;101623.34;6237669;28;20232;-53
2021/06/25 13:18:36;;;;;;;4.93;4.43;;;;;;;26.85;28.80;101619.09;6247227;28;20485;-53
2021/06/25 13:22:25;;;;;;;5.80;5.40;;;;;;;26.76;27.89;101617.88;6233098;28;20613;-53
2021/06/25 13:25:51;;;;;;;9.80;8.93;;;;;;;27.21;26.37;101621.16;6234488;28;20346;-51
2021/06/25 13:29:13;;;;;;;8.20;7.60;;;;;;;27.75;25.54;101622.88;6238384;28;20510;-54
2021/06/25 13:32:35;;;;;;;6.93;6.43;;;;;;;29.65;22.47;101612.69;6240472;28;20224;-53
2021/06/25 13:35:57;;;;;;;4.78;4.43;;;;;;;30.60;21.91;101612.41;6245791;28;20328;-55
2021/06/25 13:39:17;;;;;;;5.93;5.45;;;;;;;29.04;23.39;101612.81;6229026;28;20229;-52
2021/06/25 13:42:38;;;;;;;7.30;6.80;;;;;;;30.88;22.75;101607.41;6237628;28;20228;-52
2021/06/25 13:46:07;;;;;;;7.07;6.47;;;;;;;28.56;24.02;101605.63;6234439;28;20235;-49
2021/06/25 13:49:30;;;;;;;5.72;5.32;;;;;;;29.28;24.03;101603.94;6239748;28;20235;-50
2021/06/25 13:52:54;;;;;;;6.85;6.25;;;;;;;29.43;22.73;101609.00;6241322;28;20632;-51
2021/06/25 13:56:16;;;;;;;5.93;5.10;;;;;;;29.64;22.73;101603.81;6245860;28;20602;-49
2021/06/25 13:59:38;;;;;;;6.03;5.43;;;;;;;28.58;23.77;101605.53;6248497;28;20236;-54
2021/06/25 14:03:02;;;;;;;9.80;8.88;;;;;;;29.30;23.62;101602.00;6242041;28;20236;-53
2021/06/25 14:06:24;;;;;;;7.82;7.20;;;;;;;29.10;23.87;101612.38;6234498;28;20232;-50
2021/06/25 14:09:45;;;;;;;5.30;4.85;;;;;;;28.51;23.77;101605.09;6242841;28;20322;-52
2021/06/25 14:13:06;;;;;;;9.48;8.70;;;;;;;28.89;23.94;101592.50;6256931;28;20243;-55
2021/06/25 14:16:29;;;;;;;5.28;4.88;;;;;;;28.60;23.62;101592.88;6241103;28;20497;-54
2021/06/25 14:19:51;;;;;;;5.00;4.57;;;;;;;27.27;26.05;101604.72;6245749;28;20836;-53
2021/06/25 14:23:13;;;;;;;5.38;4.97;;;;;;;27.41;25.58;101597.59;6233768;28;20239;-51
2021/06/25 14:26:34;;;;;;;4.82;4.53;;;;;;;27.05;26.38;101593.75;6237673;28;20235;-53
2021/06/25 14:29:55;;;;;;;5.20;4.00;;;;;;;28.38;25.47;101588.16;6231927;28;20602;-55
2021/06/25 14:33:16;;;;;;;6.38;5.47;;;;;;;28.26;25.07;101593.44;6243178;28;20224;-54
2021/06/25 14:36:38;;;;;;;4.63;4.32;;;;;;;27.40;25.22;101595.88;6246427;28;20221;-51
2021/06/25 14:39:59;;;;;;;4.43;4.13;;;;;;;26.50;25.61;101596.34;6246221;28;20220;-55
2021/06/25 14:43:21;;;;;;;4.30;4.00;;;;;;;26.94;25.80;101596.25;6236301;28;20228;-52
2021/06/25 14:46:42;;;;;;;5.20;4.75;;;;;;;27.37;24.09;101586.25;6243798;28;20232;-53
2021/06/25 14:50:04;;;;;;;3.70;3.50;;;;;;;27.12;24.08;101589.69;6235437;28;20228;-53
2021/06/25 14:53:26;;;;;;;5.90;5.47;;;;;;;27.41;24.67;101586.88;6240993;28;20319;-53
2021/06/25 14:56:47;;;;;;;6.82;5.90;;;;;;;28.37;22.66;101581.13;6240283;28;20583;-53
2021/06/25 15:00:10;;;;;;;6.80;4.95;;;;;;;27.74;23.91;101586.38;6236309;28;20237;-53
2021/06/25 15:03:31;;;;;;;5.90;4.57;;;;;;;27.79;24.40;101592.28;6240676;28;20963;-48
2021/06/25 15:06:52;;;;;;;6.00;5.50;;;;;;;28.69;24.13;101585.97;6246924;28;20571;-49
2021/06/25 15:10:14;;;;;;;4.30;4.00;;;;;;;28.27;23.11;101587.13;6236774;28;20236;-56
2021/06/25 15:13:35;;;;;;;4.35;4.10;;;;;;;27.91;23.29;101585.25;6245974;28;20224;-50
2021/06/25 15:16:55;;;;;;;4.82;4.43;;;;;;;27.65;24.02;101579.88;6238814;28;20678;-52
2021/06/25 15:20:17;;;;;;;3.38;3.08;;;;;;;28.16;23.93;101578.16;6237970;28;20224;-51
2021/06/25 15:23:38;;;;;;;16.77;15.20;;;;;;;28.55;23.50;101579.78;6249315;28;20236;-53
2021/06/25 15:27:00;;;;;;;7.68;7.07;;;;;;;28.65;22.69;101577.28;6261454;28;20244;-50
2021/06/25 15:30:23;;;;;;;5.10;4.70;;;;;;;28.40;22.65;101576.38;6248750;28;20255;-53
2021/06/25 15:33:44;;;;;;;6.35;5.72;;;;;;;28.58;21.41;101581.41;6245084;28;20229;-54
2021/06/25 15:37:05;;;;;;;9.95;9.00;;;;;;;28.16;22.33;101578.16;6235734;28;21068;-50
2021/06/25 15:40:25;;;;;;;5.97;5.47;;;;;;;27.32;23.96;101584.84;6248509;28;20225;-52
2021/06/25 15:43:48;;;;;;;8.07;7.38;;;;;;;27.60;23.67;101584.66;6243373;28;20256;-54
2021/06/25 15:47:08;;;;;;;18.00;16.48;;;;;;;27.76;24.37;101586.28;6223047;28;20689;-54
2021/06/25 15:50:29;;;;;;;26.35;24.20;;;;;;;28.28;23.89;101577.25;6245706;28;20228;-51